sensor_id;sensor_type;location;lat;lon;timestamp;pressure;altitude;pressure_sealevel;temperature;humidity
17521;BME280;8878;-33.370;-70.552;2022-08-27T00:00:14;92492.91;;;12.81;99.47
17521;BME280;8878;-33.370;-70.552;2022-08-27T00:02:46;92493.47;;;12.73;100.00
17521;BME280;8878;-33.370;-70.552;2022-08-27T00:05:17;92496.69;;;12.65;100.00
17521;BME280;8878;-33.370;-70.552;2022-08-27T00:07:48;92491.13;;;12.71;100.00
17521;BME280;8878;-33.370;-70.552;2022-08-27T00:10:23;92506.50;;;12.59;100.00
17521;BME280;8878;-33.370;-70.552;2022-08-27T00:12:53;92514.19;;;12.45;100.00
17521;BME280;8878;-33.370;-70.552;2022-08-27T00:15:25;92513.16;;;12.31;100.00
17521;BME280;8878;-33.370;-70.552;2022-08-27T00:17:56;92508.94;;;12.35;100.00
17521;BME280;8878;-33.370;-70.552;2022-08-27T00:20:26;92505.75;;;12.38;100.00
17521;BME280;8878;-33.370;-70.552;2022-08-27T00:22:56;92507.34;;;12.39;100.00
17521;BME280;8878;-33.370;-70.552;2022-08-27T00:25:26;92498.34;;;12.35;100.00
17521;BME280;8878;-33.370;-70.552;2022-08-27T00:27:56;92488.56;;;12.36;100.00
17521;BME280;8878;-33.370;-70.552;2022-08-27T00:30:29;92497.25;;;12.46;100.00
17521;BME280;8878;-33.370;-70.552;2022-08-27T00:32:59;92490.66;;;12.39;100.00
17521;BME280;8878;-33.370;-70.552;2022-08-27T00:35:31;92488.56;;;12.26;100.00
17521;BME280;8878;-33.370;-70.552;2022-08-27T00:38:00;92479.06;;;12.20;100.00
17521;BME280;8878;-33.370;-70.552;2022-08-27T00:40:32;92474.56;;;12.15;100.00
17521;BME280;8878;-33.370;-70.552;2022-08-27T00:43:02;92476.69;;;12.18;100.00
17521;BME280;8878;-33.370;-70.552;2022-08-27T00:45:43;92487.25;;;12.08;100.00
17521;BME280;8878;-33.370;-70.552;2022-08-27T00:48:15;92489.91;;;12.08;100.00
17521;BME280;8878;-33.370;-70.552;2022-08-27T00:50:49;92504.19;;;12.12;100.00
17521;BME280;8878;-33.370;-70.552;2022-08-27T00:53:22;92503.41;;;12.22;100.00
17521;BME280;8878;-33.370;-70.552;2022-08-27T00:56:03;92514.00;;;12.22;100.00
17521;BME280;8878;-33.370;-70.552;2022-08-27T00:58:36;92520.31;;;12.15;100.00
17521;BME280;8878;-33.370;-70.552;2022-08-27T01:01:10;92530.91;;;12.05;100.00
17521;BME280;8878;-33.370;-70.552;2022-08-27T01:03:43;92534.88;;;11.98;100.00
17521;BME280;8878;-33.370;-70.552;2022-08-27T01:06:15;92549.66;;;11.94;100.00
17521;BME280;8878;-33.370;-70.552;2022-08-27T01:08:50;92554.97;;;11.79;100.00
17521;BME280;8878;-33.370;-70.552;2022-08-27T01:11:22;92562.31;;;11.71;100.00
17521;BME280;8878;-33.370;-70.552;2022-08-27T01:13:53;92560.44;;;11.62;100.00
17521;BME280;8878;-33.370;-70.552;2022-08-27T01:16:26;92564.41;;;11.54;100.00
17521;BME280;8878;-33.370;-70.552;2022-08-27T01:18:58;92562.56;;;11.55;100.00
17521;BME280;8878;-33.370;-70.552;2022-08-27T01:21:32;92560.44;;;11.62;100.00
17521;BME280;8878;-33.370;-70.552;2022-08-27T01:26:43;92566.00;;;11.55;100.00
17521;BME280;8878;-33.370;-70.552;2022-08-27T01:29:13;92570.19;;;11.46;100.00
17521;BME280;8878;-33.370;-70.552;2022-08-27T01:31:43;92564.66;;;11.43;100.00
17521;BME280;8878;-33.370;-70.552;2022-08-27T01:34:15;92561.47;;;11.46;100.00
17521;BME280;8878;-33.370;-70.552;2022-08-27T01:36:45;92561.97;;;11.37;100.00
17521;BME280;8878;-33.370;-70.552;2022-08-27T01:39:17;92557.22;;;11.34;100.00
17521;BME280;8878;-33.370;-70.552;2022-08-27T01:41:48;92558.53;;;11.32;100.00
17521;BME280;8878;-33.370;-70.552;2022-08-27T01:44:19;92557.47;;;11.28;100.00
17521;BME280;8878;-33.370;-70.552;2022-08-27T01:46:49;92557.22;;;11.34;100.00
17521;BME280;8878;-33.370;-70.552;2022-08-27T01:49:20;92557.47;;;11.33;100.00
17521;BME280;8878;-33.370;-70.552;2022-08-27T01:51:49;92557.97;;;11.30;100.00
17521;BME280;8878;-33.370;-70.552;2022-08-27T01:54:19;92556.13;;;11.30;100.00
17521;BME280;8878;-33.370;-70.552;2022-08-27T01:56:50;92569.09;;;11.37;100.00
17521;BME280;8878;-33.370;-70.552;2022-08-27T01:59:20;92568.59;;;11.35;100.00
17521;BME280;8878;-33.370;-70.552;2022-08-27T02:01:50;92577.03;;;11.37;100.00
17521;BME280;8878;-33.370;-70.552;2022-08-27T02:04:20;92587.09;;;11.45;100.00
17521;BME280;8878;-33.370;-70.552;2022-08-27T02:06:50;92591.31;;;11.46;100.00
17521;BME280;8878;-33.370;-70.552;2022-08-27T02:09:19;92602.16;;;11.45;100.00
17521;BME280;8878;-33.370;-70.552;2022-08-27T02:11:51;92614.03;;;11.42;100.00
17521;BME280;8878;-33.370;-70.552;2022-08-27T02:14:20;92594.22;;;11.45;100.00
17521;BME280;8878;-33.370;-70.552;2022-08-27T02:16:51;92597.09;;;11.38;100.00
17521;BME280;8878;-33.370;-70.552;2022-08-27T02:19:21;92593.13;;;11.30;100.00
17521;BME280;8878;-33.370;-70.552;2022-08-27T02:21:51;92589.66;;;11.15;100.00
17521;BME280;8878;-33.370;-70.552;2022-08-27T02:24:21;92596.47;;;11.06;100.00
17521;BME280;8878;-33.370;-70.552;2022-08-27T02:26:53;92588.28;;;11.07;100.00
17521;BME280;8878;-33.370;-70.552;2022-08-27T02:29:23;92589.41;;;11.26;100.00
17521;BME280;8878;-33.370;-70.552;2022-08-27T02:31:53;92586.03;;;11.36;100.00
17521;BME280;8878;-33.370;-70.552;2022-08-27T02:34:22;92580.22;;;11.39;100.00
17521;BME280;8878;-33.370;-70.552;2022-08-27T02:36:52;92581.75;;;11.30;100.00
17521;BME280;8878;-33.370;-70.552;2022-08-27T02:39:22;92593.84;;;11.11;100.00
17521;BME280;8878;-33.370;-70.552;2022-08-27T02:41:55;92592.72;;;10.96;100.00
17521;BME280;8878;-33.370;-70.552;2022-08-27T02:44:25;92598.53;;;10.93;100.00
17521;BME280;8878;-33.370;-70.552;2022-08-27T02:46:54;92599.88;;;11.01;100.00
17521;BME280;8878;-33.370;-70.552;2022-08-27T02:49:25;92602.84;;;11.15;100.00
17521;BME280;8878;-33.370;-70.552;2022-08-27T02:51:54;92602.31;;;11.23;100.00
17521;BME280;8878;-33.370;-70.552;2022-08-27T02:54:24;92606.84;;;11.22;100.00
17521;BME280;8878;-33.370;-70.552;2022-08-27T02:56:56;92607.00;;;11.01;100.00
17521;BME280;8878;-33.370;-70.552;2022-08-27T02:59:26;92606.47;;;10.98;100.00
17521;BME280;8878;-33.370;-70.552;2022-08-27T03:02:04;92608.06;;;10.99;100.00
17521;BME280;8878;-33.370;-70.552;2022-08-27T03:04:43;92605.72;;;11.08;100.00
17521;BME280;8878;-33.370;-70.552;2022-08-27T03:07:15;92610.25;;;11.18;100.00
17521;BME280;8878;-33.370;-70.552;2022-08-27T03:09:46;92602.06;;;11.19;100.00
17521;BME280;8878;-33.370;-70.552;2022-08-27T03:12:19;92608.13;;;11.20;100.00
17521;BME280;8878;-33.370;-70.552;2022-08-27T03:14:48;92608.66;;;11.17;100.00
17521;BME280;8878;-33.370;-70.552;2022-08-27T03:17:19;92609.44;;;11.17;100.00
17521;BME280;8878;-33.370;-70.552;2022-08-27T03:20:07;92618.16;;;11.23;100.00
17521;BME280;8878;-33.370;-70.552;2022-08-27T03:22:41;92611.59;;;11.20;100.00
17521;BME280;8878;-33.370;-70.552;2022-08-27T03:25:11;92612.56;;;11.09;100.00
17521;BME280;8878;-33.370;-70.552;2022-08-27T03:27:42;92614.16;;;11.10;100.00
17521;BME280;8878;-33.370;-70.552;2022-08-27T03:30:17;92617.63;;;11.16;100.00
17521;BME280;8878;-33.370;-70.552;2022-08-27T03:32:47;92607.59;;;11.18;100.00
17521;BME280;8878;-33.370;-70.552;2022-08-27T03:35:40;92609.69;;;11.16;100.00
17521;BME280;8878;-33.370;-70.552;2022-08-27T03:38:09;92611.28;;;11.17;100.00
17521;BME280;8878;-33.370;-70.552;2022-08-27T03:40:39;92609.91;;;11.04;100.00
17521;BME280;8878;-33.370;-70.552;2022-08-27T03:43:14;92603.25;;;10.86;100.00
17521;BME280;8878;-33.370;-70.552;2022-08-27T03:45:45;92601.88;;;10.79;100.00
17521;BME280;8878;-33.370;-70.552;2022-08-27T03:48:16;92605.81;;;10.76;100.00
17521;BME280;8878;-33.370;-70.552;2022-08-27T03:50:55;92601.00;;;10.68;100.00
17521;BME280;8878;-33.370;-70.552;2022-08-27T03:53:24;92610.53;;;10.74;100.00
17521;BME280;8878;-33.370;-70.552;2022-08-27T03:55:56;92619.00;;;10.76;100.00
17521;BME280;8878;-33.370;-70.552;2022-08-27T03:58:28;92629.06;;;10.79;100.00
17521;BME280;8878;-33.370;-70.552;2022-08-27T04:01:06;92626.50;;;10.94;100.00
17521;BME280;8878;-33.370;-70.552;2022-08-27T04:03:36;92640.22;;;10.96;100.00
17521;BME280;8878;-33.370;-70.552;2022-08-27T04:06:06;92638.06;;;10.88;100.00
17521;BME280;8878;-33.370;-70.552;2022-08-27T04:08:35;92641.69;;;10.72;100.00
17521;BME280;8878;-33.370;-70.552;2022-08-27T04:11:07;92651.09;;;10.58;100.00
17521;BME280;8878;-33.370;-70.552;2022-08-27T04:13:40;92665.22;;;10.47;100.00
17521;BME280;8878;-33.370;-70.552;2022-08-27T04:16:35;92659.00;;;10.58;100.00
17521;BME280;8878;-33.370;-70.552;2022-08-27T04:19:06;92662.81;;;10.40;100.00
17521;BME280;8878;-33.370;-70.552;2022-08-27T04:21:37;92663.72;;;10.24;100.00
17521;BME280;8878;-33.370;-70.552;2022-08-27T04:24:07;92659.31;;;10.30;100.00
17521;BME280;8878;-33.370;-70.552;2022-08-27T04:26:39;92668.53;;;10.32;100.00
17521;BME280;8878;-33.370;-70.552;2022-08-27T04:29:22;92672.88;;;10.43;100.00
17521;BME280;8878;-33.370;-70.552;2022-08-27T04:31:52;92673.59;;;10.39;100.00
17521;BME280;8878;-33.370;-70.552;2022-08-27T04:34:22;92674.06;;;10.31;100.00
17521;BME280;8878;-33.370;-70.552;2022-08-27T04:37:16;92671.34;;;10.20;100.00
17521;BME280;8878;-33.370;-70.552;2022-08-27T04:39:49;92675.81;;;10.20;100.00
17521;BME280;8878;-33.370;-70.552;2022-08-27T04:42:19;92671.94;;;10.28;100.00
17521;BME280;8878;-33.370;-70.552;2022-08-27T04:44:51;92677.66;;;10.19;100.00
17521;BME280;8878;-33.370;-70.552;2022-08-27T04:47:29;92672.84;;;10.16;100.00
17521;BME280;8878;-33.370;-70.552;2022-08-27T04:50:08;92669.50;;;10.21;100.00
17521;BME280;8878;-33.370;-70.552;2022-08-27T04:52:38;92671.63;;;10.24;100.00
17521;BME280;8878;-33.370;-70.552;2022-08-27T04:55:08;92672.97;;;10.27;100.00
17521;BME280;8878;-33.370;-70.552;2022-08-27T04:58:01;92676.69;;;10.31;100.00
17521;BME280;8878;-33.370;-70.552;2022-08-27T05:00:32;92672.97;;;10.27;100.00
17521;BME280;8878;-33.370;-70.552;2022-08-27T05:03:01;92669.19;;;10.17;100.00
17521;BME280;8878;-33.370;-70.552;2022-08-27T05:05:33;92678.72;;;10.18;100.00
17521;BME280;8878;-33.370;-70.552;2022-08-27T05:08:04;92675.88;;;10.25;100.00
17521;BME280;8878;-33.370;-70.552;2022-08-27T05:10:40;92679.28;;;10.26;100.00
17521;BME280;8878;-33.370;-70.552;2022-08-27T05:13:11;92671.38;;;10.26;100.00
17521;BME280;8878;-33.370;-70.552;2022-08-27T05:15:44;92683.50;;;10.22;100.00
17521;BME280;8878;-33.370;-70.552;2022-08-27T05:18:16;92673.81;;;10.05;100.00
17521;BME280;8878;-33.370;-70.552;2022-08-27T05:20:46;92676.41;;;10.00;100.00
17521;BME280;8878;-33.370;-70.552;2022-08-27T05:23:17;92676.50;;;10.10;100.00
17521;BME280;8878;-33.370;-70.552;2022-08-27T05:25:56;92689.44;;;10.12;100.00
17521;BME280;8878;-33.370;-70.552;2022-08-27T05:28:27;92678.13;;;10.16;100.00
17521;BME280;8878;-33.370;-70.552;2022-08-27T05:31:05;92677.41;;;10.21;100.00
17521;BME280;8878;-33.370;-70.552;2022-08-27T05:33:38;92672.66;;;10.23;100.00
17521;BME280;8878;-33.370;-70.552;2022-08-27T05:36:14;92667.97;;;10.30;100.00
17521;BME280;8878;-33.370;-70.552;2022-08-27T05:38:45;92663.03;;;10.34;100.00
17521;BME280;8878;-33.370;-70.552;2022-08-27T05:41:17;92666.28;;;10.46;100.00
17521;BME280;8878;-33.370;-70.552;2022-08-27T05:43:48;92668.38;;;10.44;100.00
17521;BME280;8878;-33.370;-70.552;2022-08-27T05:46:20;92659.16;;;10.46;100.00
17521;BME280;8878;-33.370;-70.552;2022-08-27T05:48:51;92653.59;;;10.43;100.00
17521;BME280;8878;-33.370;-70.552;2022-08-27T05:51:22;92655.44;;;10.42;100.00
17521;BME280;8878;-33.370;-70.552;2022-08-27T05:53:55;92658.88;;;10.43;100.00
17521;BME280;8878;-33.370;-70.552;2022-08-27T05:56:27;92664.75;;;10.50;100.00
17521;BME280;8878;-33.370;-70.552;2022-08-27T05:59:01;92658.19;;;10.26;100.00
17521;BME280;8878;-33.370;-70.552;2022-08-27T06:01:51;92656.09;;;10.23;100.00
17521;BME280;8878;-33.370;-70.552;2022-08-27T06:04:45;92664.47;;;10.19;100.00
17521;BME280;8878;-33.370;-70.552;2022-08-27T06:07:16;92659.22;;;10.19;100.00
17521;BME280;8878;-33.370;-70.552;2022-08-27T06:09:47;92660.13;;;10.35;100.00
17521;BME280;8878;-33.370;-70.552;2022-08-27T06:12:17;92659.13;;;10.41;100.00
17521;BME280;8878;-33.370;-70.552;2022-08-27T06:14:58;92661.47;;;10.38;100.00
17521;BME280;8878;-33.370;-70.552;2022-08-27T06:17:30;92674.47;;;10.17;100.00
17521;BME280;8878;-33.370;-70.552;2022-08-27T06:20:00;92667.50;;;10.06;100.00
17521;BME280;8878;-33.370;-70.552;2022-08-27T06:22:29;92673.41;;;9.92;100.00
17521;BME280;8878;-33.370;-70.552;2022-08-27T06:24:59;92679.97;;;9.89;100.00
17521;BME280;8878;-33.370;-70.552;2022-08-27T06:27:29;92669.56;;;10.04;100.00
17521;BME280;8878;-33.370;-70.552;2022-08-27T06:30:09;92676.94;;;10.02;100.00
17521;BME280;8878;-33.370;-70.552;2022-08-27T06:32:40;92677.69;;;9.98;100.00
17521;BME280;8878;-33.370;-70.552;2022-08-27T06:35:10;92682.59;;;9.89;100.00
17521;BME280;8878;-33.370;-70.552;2022-08-27T06:37:39;92688.38;;;9.86;100.00
17521;BME280;8878;-33.370;-70.552;2022-08-27T06:40:09;92677.84;;;9.86;100.00
17521;BME280;8878;-33.370;-70.552;2022-08-27T06:42:39;92682.59;;;9.89;100.00
17521;BME280;8878;-33.370;-70.552;2022-08-27T06:45:19;92682.00;;;9.82;100.00
17521;BME280;8878;-33.370;-70.552;2022-08-27T06:47:50;92700.03;;;9.68;100.00
17521;BME280;8878;-33.370;-70.552;2022-08-27T06:50:43;92687.09;;;9.67;100.00
17521;BME280;8878;-33.370;-70.552;2022-08-27T06:53:12;92698.09;;;9.59;100.00
17521;BME280;8878;-33.370;-70.552;2022-08-27T06:55:51;92707.53;;;9.55;100.00
17521;BME280;8878;-33.370;-70.552;2022-08-27T06:58:25;92709.91;;;9.56;100.00
17521;BME280;8878;-33.370;-70.552;2022-08-27T07:00:54;92705.72;;;9.60;100.00
17521;BME280;8878;-33.370;-70.552;2022-08-27T07:03:25;92708.53;;;9.75;100.00
17521;BME280;8878;-33.370;-70.552;2022-08-27T07:06:03;92706.50;;;9.82;100.00
17521;BME280;8878;-33.370;-70.552;2022-08-27T07:08:33;92702.88;;;9.89;100.00
17521;BME280;8878;-33.370;-70.552;2022-08-27T07:11:13;92708.88;;;9.79;100.00
17521;BME280;8878;-33.370;-70.552;2022-08-27T07:13:46;92713.44;;;9.89;100.00
17521;BME280;8878;-33.370;-70.552;2022-08-27T07:16:18;92708.09;;;10.05;100.00
17521;BME280;8878;-33.370;-70.552;2022-08-27T07:18:53;92707.84;;;10.07;100.00
17521;BME280;8878;-33.370;-70.552;2022-08-27T07:21:47;92700.34;;;10.20;100.00
17521;BME280;8878;-33.370;-70.552;2022-08-27T07:24:18;92698.97;;;9.91;100.00
17521;BME280;8878;-33.370;-70.552;2022-08-27T07:26:50;92696.78;;;10.10;100.00
17521;BME280;8878;-33.370;-70.552;2022-08-27T07:29:20;92689.59;;;10.27;100.00
17521;BME280;8878;-33.370;-70.552;2022-08-27T07:31:59;92683.91;;;10.40;100.00
17521;BME280;8878;-33.370;-70.552;2022-08-27T07:34:31;92684.81;;;10.51;100.00
17521;BME280;8878;-33.370;-70.552;2022-08-27T07:37:01;92683.06;;;10.35;100.00
17521;BME280;8878;-33.370;-70.552;2022-08-27T07:39:31;92687.06;;;10.37;100.00
17521;BME280;8878;-33.370;-70.552;2022-08-27T07:42:00;92670.50;;;10.47;100.00
17521;BME280;8878;-33.370;-70.552;2022-08-27T07:44:47;92678.00;;;10.60;100.00
17521;BME280;8878;-33.370;-70.552;2022-08-27T07:47:17;92680.59;;;10.55;100.00
17521;BME280;8878;-33.370;-70.552;2022-08-27T07:49:48;92674.97;;;10.41;100.00
17521;BME280;8878;-33.370;-70.552;2022-08-27T07:52:17;92671.53;;;10.41;100.00
17521;BME280;8878;-33.370;-70.552;2022-08-27T07:54:46;92667.41;;;10.55;100.00
17521;BME280;8878;-33.370;-70.552;2022-08-27T07:57:17;92661.13;;;10.61;100.00
17521;BME280;8878;-33.370;-70.552;2022-08-27T07:59:47;92658.50;;;10.66;100.00
17521;BME280;8878;-33.370;-70.552;2022-08-27T08:02:20;92667.97;;;10.57;100.00
17521;BME280;8878;-33.370;-70.552;2022-08-27T08:05:16;92668.97;;;10.51;100.00
17521;BME280;8878;-33.370;-70.552;2022-08-27T08:07:46;92676.25;;;10.39;100.00
17521;BME280;8878;-33.370;-70.552;2022-08-27T08:10:16;92680.34;;;10.25;100.00
17521;BME280;8878;-33.370;-70.552;2022-08-27T08:12:50;92671.91;;;10.23;100.00
17521;BME280;8878;-33.370;-70.552;2022-08-27T08:15:19;92681.44;;;10.29;100.00
17521;BME280;8878;-33.370;-70.552;2022-08-27T08:17:49;92679.84;;;10.28;100.00
17521;BME280;8878;-33.370;-70.552;2022-08-27T08:20:43;92678.25;;;10.27;100.00
17521;BME280;8878;-33.370;-70.552;2022-08-27T08:23:13;92677.25;;;10.33;100.00
17521;BME280;8878;-33.370;-70.552;2022-08-27T08:25:51;92679.75;;;10.44;100.00
17521;BME280;8878;-33.370;-70.552;2022-08-27T08:28:21;92673.88;;;10.37;100.00
17521;BME280;8878;-33.370;-70.552;2022-08-27T08:30:51;92675.91;;;10.30;100.00
17521;BME280;8878;-33.370;-70.552;2022-08-27T08:33:24;92679.19;;;10.15;100.00
17521;BME280;8878;-33.370;-70.552;2022-08-27T08:36:02;92677.44;;;9.99;100.00
17521;BME280;8878;-33.370;-70.552;2022-08-27T08:38:33;92680.53;;;9.91;100.00
17521;BME280;8878;-33.370;-70.552;2022-08-27T08:41:04;92676.69;;;10.04;100.00
17521;BME280;8878;-33.370;-70.552;2022-08-27T08:43:36;92668.97;;;10.19;100.00
17521;BME280;8878;-33.370;-70.552;2022-08-27T08:46:13;92653.16;;;10.24;100.00
17521;BME280;8878;-33.370;-70.552;2022-08-27T08:48:50;92655.34;;;10.32;100.00
17521;BME280;8878;-33.370;-70.552;2022-08-27T08:51:35;92647.19;;;10.34;100.00
17521;BME280;8878;-33.370;-70.552;2022-08-27T08:54:09;92643.41;;;10.25;100.00
17521;BME280;8878;-33.370;-70.552;2022-08-27T08:56:54;92633.66;;;10.25;100.00
17521;BME280;8878;-33.370;-70.552;2022-08-27T08:59:53;92630.13;;;10.14;100.00
17521;BME280;8878;-33.370;-70.552;2022-08-27T09:02:24;92635.41;;;10.14;100.00
17521;BME280;8878;-33.370;-70.552;2022-08-27T09:04:55;92630.13;;;10.14;100.00
17521;BME280;8878;-33.370;-70.552;2022-08-27T09:07:33;92630.19;;;10.19;100.00
17521;BME280;8878;-33.370;-70.552;2022-08-27T09:10:17;92629.09;;;10.15;100.00
17521;BME280;8878;-33.370;-70.552;2022-08-27T09:13:01;92634.44;;;10.20;100.00
17521;BME280;8878;-33.370;-70.552;2022-08-27T09:15:35;92632.44;;;10.06;100.00
17521;BME280;8878;-33.370;-70.552;2022-08-27T09:18:10;92637.19;;;10.09;100.00
17521;BME280;8878;-33.370;-70.552;2022-08-27T09:20:40;92631.31;;;10.02;100.00
17521;BME280;8878;-33.370;-70.552;2022-08-27T09:23:18;92619.31;;;10.16;100.00
17521;BME280;8878;-33.370;-70.552;2022-08-27T09:26:01;92611.75;;;10.19;100.00
17521;BME280;8878;-33.370;-70.552;2022-08-27T09:28:30;92607.44;;;10.13;100.00
17521;BME280;8878;-33.370;-70.552;2022-08-27T09:31:19;92597.63;;;10.09;100.00
17521;BME280;8878;-33.370;-70.552;2022-08-27T09:33:48;92587.38;;;10.07;100.00
17521;BME280;8878;-33.370;-70.552;2022-08-27T09:36:19;92575.72;;;10.03;100.00
17521;BME280;8878;-33.370;-70.552;2022-08-27T09:38:54;92579.16;;;10.04;100.00
17521;BME280;8878;-33.370;-70.552;2022-08-27T09:41:28;92582.31;;;10.01;100.00
17521;BME280;8878;-33.370;-70.552;2022-08-27T09:44:00;92582.03;;;10.02;100.00
17521;BME280;8878;-33.370;-70.552;2022-08-27T09:46:31;92587.91;;;10.09;100.00
17521;BME280;8878;-33.370;-70.552;2022-08-27T09:49:10;92593.56;;;9.91;100.00
17521;BME280;8878;-33.370;-70.552;2022-08-27T09:51:41;92598.00;;;9.59;100.00
17521;BME280;8878;-33.370;-70.552;2022-08-27T09:54:29;92601.00;;;9.46;100.00
17521;BME280;8878;-33.370;-70.552;2022-08-27T09:57:00;92598.09;;;9.42;100.00
17521;BME280;8878;-33.370;-70.552;2022-08-27T09:59:33;92595.06;;;9.55;100.00
17521;BME280;8878;-33.370;-70.552;2022-08-27T10:02:15;92588.00;;;9.61;100.00
17521;BME280;8878;-33.370;-70.552;2022-08-27T10:04:56;92577.00;;;9.69;100.00
17521;BME280;8878;-33.370;-70.552;2022-08-27T10:07:40;92585.91;;;9.63;100.00
17521;BME280;8878;-33.370;-70.552;2022-08-27T10:10:15;92600.53;;;9.49;100.00
17521;BME280;8878;-33.370;-70.552;2022-08-27T10:12:54;92614.13;;;9.19;100.00
17521;BME280;8878;-33.370;-70.552;2022-08-27T10:15:27;92627.19;;;8.87;100.00
17521;BME280;8878;-33.370;-70.552;2022-08-27T10:18:05;92645.38;;;8.72;100.00
17521;BME280;8878;-33.370;-70.552;2022-08-27T10:20:46;92662.31;;;8.42;100.00
17521;BME280;8878;-33.370;-70.552;2022-08-27T10:23:27;92669.63;;;8.40;100.00
17521;BME280;8878;-33.370;-70.552;2022-08-27T10:26:05;92680.94;;;8.57;100.00
17521;BME280;8878;-33.370;-70.552;2022-08-27T10:28:48;92688.84;;;8.57;100.00
17521;BME280;8878;-33.370;-70.552;2022-08-27T10:31:28;92694.88;;;8.41;100.00
17521;BME280;8878;-33.370;-70.552;2022-08-27T10:34:14;92688.75;;;8.52;100.00
17521;BME280;8878;-33.370;-70.552;2022-08-27T10:36:54;92698.31;;;8.58;100.00
17521;BME280;8878;-33.370;-70.552;2022-08-27T10:39:37;92709.88;;;8.57;100.00
17521;BME280;8878;-33.370;-70.552;2022-08-27T10:42:15;92713.78;;;8.55;100.00
17521;BME280;8878;-33.370;-70.552;2022-08-27T10:44:58;92721.19;;;8.58;100.00
17521;BME280;8878;-33.370;-70.552;2022-08-27T10:47:40;92724.59;;;8.42;100.00
17521;BME280;8878;-33.370;-70.552;2022-08-27T10:50:18;92731.97;;;8.28;100.00
17521;BME280;8878;-33.370;-70.552;2022-08-27T10:52:52;92728.66;;;8.33;100.00
17521;BME280;8878;-33.370;-70.552;2022-08-27T10:55:28;92733.38;;;8.47;100.00
17521;BME280;8878;-33.370;-70.552;2022-08-27T10:58:18;92739.44;;;8.48;100.00
17521;BME280;8878;-33.370;-70.552;2022-08-27T11:00:56;92735.19;;;8.47;100.00
17521;BME280;8878;-33.370;-70.552;2022-08-27T11:03:34;92738.84;;;8.29;100.00
17521;BME280;8878;-33.370;-70.552;2022-08-27T11:06:13;92747.41;;;8.36;100.00
17521;BME280;8878;-33.370;-70.552;2022-08-27T11:08:46;92745.41;;;8.43;100.00
17521;BME280;8878;-33.370;-70.552;2022-08-27T11:11:33;92749.00;;;8.37;100.00
17521;BME280;8878;-33.370;-70.552;2022-08-27T11:14:11;92745.97;;;8.45;100.00
17521;BME280;8878;-33.370;-70.552;2022-08-27T11:16:47;92740.88;;;8.72;100.00
17521;BME280;8878;-33.370;-70.552;2022-08-27T11:19:24;92738.84;;;8.96;100.00
17521;BME280;8878;-33.370;-70.552;2022-08-27T11:22:03;92739.00;;;9.06;100.00
17521;BME280;8878;-33.370;-70.552;2022-08-27T11:24:40;92736.03;;;9.19;100.00
17521;BME280;8878;-33.370;-70.552;2022-08-27T11:27:23;92729.63;;;9.32;100.00
17521;BME280;8878;-33.370;-70.552;2022-08-27T11:30:00;92731.38;;;9.26;100.00
17521;BME280;8878;-33.370;-70.552;2022-08-27T11:32:48;92740.03;;;9.22;100.00
17521;BME280;8878;-33.370;-70.552;2022-08-27T11:35:34;92747.91;;;9.22;100.00
17521;BME280;8878;-33.370;-70.552;2022-08-27T11:38:26;92738.59;;;9.14;100.00
17521;BME280;8878;-33.370;-70.552;2022-08-27T11:41:20;92740.44;;;9.14;100.00
17521;BME280;8878;-33.370;-70.552;2022-08-27T11:43:58;92728.88;;;9.15;100.00
17521;BME280;8878;-33.370;-70.552;2022-08-27T11:46:43;92730.31;;;9.06;100.00
17521;BME280;8878;-33.370;-70.552;2022-08-27T11:49:24;92721.31;;;9.01;100.00
17521;BME280;8878;-33.370;-70.552;2022-08-27T11:52:08;92713.72;;;9.05;100.00
17521;BME280;8878;-33.370;-70.552;2022-08-27T11:54:45;92721.56;;;9.00;100.00
17521;BME280;8878;-33.370;-70.552;2022-08-27T11:57:25;92724.13;;;8.95;100.00
17521;BME280;8878;-33.370;-70.552;2022-08-27T11:59:58;92722.81;;;8.97;100.00
17521;BME280;8878;-33.370;-70.552;2022-08-27T12:06:09;92723.16;;;9.01;100.00
17521;BME280;8878;-33.370;-70.552;2022-08-27T12:08:39;92722.25;;;9.12;100.00
17521;BME280;8878;-33.370;-70.552;2022-08-27T12:11:23;92720.97;;;9.15;100.00
17521;BME280;8878;-33.370;-70.552;2022-08-27T12:14:04;92727.66;;;9.22;100.00
17521;BME280;8878;-33.370;-70.552;2022-08-27T12:16:44;92728.97;;;9.41;100.00
17521;BME280;8878;-33.370;-70.552;2022-08-27T12:19:26;92743.03;;;9.30;100.00
17521;BME280;8878;-33.370;-70.552;2022-08-27T12:22:15;92727.78;;;9.32;100.00
17521;BME280;8878;-33.370;-70.552;2022-08-27T12:24:50;92719.41;;;9.35;100.00
17521;BME280;8878;-33.370;-70.552;2022-08-27T12:27:32;92727.34;;;9.40;100.00
17521;BME280;8878;-33.370;-70.552;2022-08-27T12:30:17;92729.81;;;9.47;100.00
17521;BME280;8878;-33.370;-70.552;2022-08-27T12:33:03;92725.41;;;9.53;100.00
17521;BME280;8878;-33.370;-70.552;2022-08-27T12:35:42;92729.53;;;9.43;100.00
17521;BME280;8878;-33.370;-70.552;2022-08-27T12:38:17;92726.09;;;9.43;100.00
17521;BME280;8878;-33.370;-70.552;2022-08-27T12:40:50;92730.91;;;9.29;100.00
17521;BME280;8878;-33.370;-70.552;2022-08-27T12:43:22;92721.53;;;9.38;100.00
17521;BME280;8878;-33.370;-70.552;2022-08-27T12:45:55;92719.31;;;9.52;100.00
17521;BME280;8878;-33.370;-70.552;2022-08-27T12:48:30;92713.34;;;9.57;100.00
17521;BME280;8878;-33.370;-70.552;2022-08-27T12:51:05;92721.25;;;9.57;100.00
17521;BME280;8878;-33.370;-70.552;2022-08-27T12:53:44;92721.00;;;9.36;100.00
17521;BME280;8878;-33.370;-70.552;2022-08-27T12:56:39;92719.47;;;9.40;100.00
17521;BME280;8878;-33.370;-70.552;2022-08-27T12:59:32;92721.84;;;9.64;100.00
17521;BME280;8878;-33.370;-70.552;2022-08-27T13:02:19;92725.06;;;9.66;100.00
17521;BME280;8878;-33.370;-70.552;2022-08-27T13:04:51;92728.22;;;9.68;100.00
17521;BME280;8878;-33.370;-70.552;2022-08-27T13:07:28;92716.41;;;9.70;100.00
17521;BME280;8878;-33.370;-70.552;2022-08-27T13:10:11;92697.63;;;9.89;100.00
17521;BME280;8878;-33.370;-70.552;2022-08-27T13:12:43;92695.25;;;10.14;100.00
17521;BME280;8878;-33.370;-70.552;2022-08-27T13:15:15;92698.34;;;10.33;100.00
17521;BME280;8878;-33.370;-70.552;2022-08-27T13:17:47;92699.19;;;10.38;100.00